Time;durP1;ratioP1;P1;durP2;ratioP2;P2;SDS_P1;SDS_P2;PMS_P1;PMS_P2;Temp;Humidity;BMP_temperature;BMP_pressure;BME280_temperature;BME280_humidity;BME280_pressure;Samples;Min_cycle;Max_cycle;Signal;HPM_P1;HPM_P2
2021/11/26 00:02:14;;;;;;;9.93;2.53;;;4.60;99.90;;;;;;5017827;28;20022;-74
2021/11/26 00:04:40;;;;;;;11.20;3.22;;;4.60;99.90;;;;;;5013115;28;20030;-75
2021/11/26 00:07:06;;;;;;;13.07;3.88;;;4.60;99.90;;;;;;5014832;28;20028;-75
2021/11/26 00:09:32;;;;;;;10.27;2.70;;;4.60;99.90;;;;;;5022363;28;20031;-75
2021/11/26 00:11:57;;;;;;;13.18;3.80;;;4.60;99.90;;;;;;5019128;28;20037;-75
2021/11/26 00:14:29;;;;;;;8.90;2.70;;;4.70;99.90;;;;;;5016131;28;20666;-76
2021/11/26 00:16:59;;;;;;;11.77;3.15;;;4.70;99.90;;;;;;5016536;28;20026;-75
2021/11/26 00:19:25;;;;;;;9.82;3.67;;;4.70;99.90;;;;;;5024809;28;20053;-75
2021/11/26 00:21:52;;;;;;;9.27;2.50;;;4.70;99.90;;;;;;5023284;28;20017;-76
2021/11/26 00:24:18;;;;;;;9.40;2.65;;;4.70;99.90;;;;;;5021096;28;20042;-75
2021/11/26 00:26:47;;;;;;;10.30;2.25;;;4.70;99.90;;;;;;5023125;28;20013;-74
2021/11/26 00:29:13;;;;;;;7.32;2.67;;;4.70;99.90;;;;;;5014783;28;20022;-75
2021/11/26 00:31:39;;;;;;;5.00;1.75;;;4.70;99.90;;;;;;5020602;28;20060;-75
2021/11/26 00:34:05;;;;;;;7.70;1.60;;;4.70;99.90;;;;;;5017209;28;20061;-75
2021/11/26 00:36:31;;;;;;;5.53;1.40;;;4.60;99.90;;;;;;5022060;28;20037;-76
2021/11/26 00:38:57;;;;;;;6.03;1.20;;;4.60;99.90;;;;;;5013577;28;20026;-74
2021/11/26 00:41:24;;;;;;;5.65;1.00;;;4.60;99.90;;;;;;5020659;28;20495;-75
2021/11/26 00:43:50;;;;;;;10.65;1.30;;;4.50;99.90;;;;;;5022631;28;21925;-74
2021/11/26 00:46:16;;;;;;;5.22;1.27;;;4.50;99.90;;;;;;5017976;28;20022;-74
2021/11/26 00:48:42;;;;;;;6.95;0.95;;;4.50;99.90;;;;;;5020576;28;20029;-74
2021/11/26 00:51:09;;;;;;;3.60;1.05;;;4.50;99.90;;;;;;5018923;28;20026;-74
2021/11/26 00:53:35;;;;;;;4.47;1.35;;;4.50;99.90;;;;;;5013201;28;20034;-74
2021/11/26 00:56:01;;;;;;;5.65;1.73;;;4.50;99.90;;;;;;5023433;28;20094;-74
2021/11/26 00:58:27;;;;;;;8.98;1.63;;;4.50;99.90;;;;;;5016765;28;20484;-74
2021/11/26 01:00:53;;;;;;;5.82;1.50;;;4.50;99.90;;;;;;5023527;28;20029;-74
2021/11/26 01:03:20;;;;;;;9.63;1.58;;;4.50;99.90;;;;;;5019052;28;20046;-74
2021/11/26 01:05:47;;;;;;;6.07;2.05;;;4.60;99.90;;;;;;5014848;28;20500;-76
2021/11/26 01:08:13;;;;;;;7.32;1.55;;;4.60;99.90;;;;;;5015389;28;20050;-74
2021/11/26 01:10:40;;;;;;;8.60;2.05;;;4.60;99.90;;;;;;5014056;28;20215;-75
2021/11/26 01:13:06;;;;;;;8.85;2.55;;;4.60;99.90;;;;;;5012424;28;20087;-75
2021/11/26 01:15:32;;;;;;;7.68;1.65;;;4.50;99.90;;;;;;5014502;28;20049;-74
2021/11/26 01:17:59;;;;;;;7.80;2.40;;;4.50;99.90;;;;;;5018968;28;20113;-75
2021/11/26 01:20:30;;;;;;;9.38;2.30;;;4.50;99.90;;;;;;5024209;28;20037;-74
2021/11/26 01:22:57;;;;;;;9.20;2.67;;;4.50;99.90;;;;;;5013023;28;20398;-74
2021/11/26 01:25:23;;;;;;;8.48;2.70;;;4.40;99.90;;;;;;5022196;28;20013;-75
2021/11/26 01:27:50;;;;;;;9.40;2.60;;;4.40;99.90;;;;;;5012722;28;20050;-74
2021/11/26 01:30:26;;;;;;;7.03;2.70;;;4.40;99.90;;;;;;5020273;28;20033;-74
2021/11/26 01:32:57;;;;;;;9.57;2.97;;;4.40;99.90;;;;;;5014644;28;20104;-75
2021/11/26 01:35:23;;;;;;;11.57;3.17;;;4.40;99.90;;;;;;5014082;28;20124;-74
2021/11/26 01:37:50;;;;;;;6.85;2.70;;;4.30;99.90;;;;;;5017955;28;20029;-75
2021/11/26 01:40:18;;;;;;;8.38;3.05;;;4.40;99.90;;;;;;5012424;28;20080;-75
2021/11/26 01:42:44;;;;;;;12.70;3.13;;;4.40;99.90;;;;;;5016078;28;20113;-74
2021/11/26 01:45:10;;;;;;;11.25;3.00;;;4.40;99.90;;;;;;5016818;28;20097;-75
2021/11/26 01:47:36;;;;;;;14.93;3.53;;;4.40;99.90;;;;;;5020110;28;20109;-74
2021/11/26 01:50:06;;;;;;;14.48;4.50;;;4.40;99.90;;;;;;5021369;28;20389;-75
2021/11/26 01:52:32;;;;;;;8.88;3.13;;;4.40;99.90;;;;;;5017804;28;20060;-75
2021/11/26 01:54:58;;;;;;;7.47;3.08;;;4.40;99.90;;;;;;5000788;28;20061;-74
2021/11/26 01:57:24;;;;;;;12.57;3.35;;;4.40;99.90;;;;;;5015576;28;20061;-74
2021/11/26 01:59:51;;;;;;;13.77;4.32;;;4.40;99.90;;;;;;5022365;28;20047;-74
2021/11/26 02:02:18;;;;;;;10.73;3.50;;;4.40;99.90;;;;;;5023429;28;20832;-74
2021/11/26 02:04:44;;;;;;;9.95;3.83;;;4.40;99.90;;;;;;5004349;28;20022;-74
2021/11/26 02:07:10;;;;;;;13.23;4.47;;;4.40;99.90;;;;;;5014497;28;20024;-75
2021/11/26 02:09:37;;;;;;;12.20;4.50;;;4.40;99.90;;;;;;5019513;28;20057;-75
2021/11/26 02:12:03;;;;;;;13.90;4.80;;;4.40;99.90;;;;;;5013739;28;20396;-74
2021/11/26 02:14:30;;;;;;;11.73;4.53;;;4.30;99.90;;;;;;5019482;28;20026;-74
2021/11/26 02:16:56;;;;;;;14.63;4.63;;;4.30;99.90;;;;;;5014733;28;20060;-74
2021/11/26 02:19:23;;;;;;;11.30;4.07;;;4.30;99.90;;;;;;5017446;28;20032;-74
2021/11/26 02:21:51;;;;;;;16.67;4.57;;;4.30;99.90;;;;;;5016842;28;20506;-75
2021/11/26 02:24:16;;;;;;;9.43;4.15;;;4.40;99.90;;;;;;5014832;28;20029;-75
2021/11/26 02:26:46;;;;;;;10.95;4.00;;;4.40;99.90;;;;;;5016645;28;20034;-74
2021/11/26 02:29:13;;;;;;;8.77;4.30;;;4.40;99.90;;;;;;5013146;28;20037;-74
2021/11/26 02:31:39;;;;;;;14.00;3.33;;;4.40;99.90;;;;;;5013700;28;20030;-74
2021/11/26 02:34:05;;;;;;;10.75;3.58;;;4.50;99.90;;;;;;5002259;28;20032;-74
2021/11/26 02:36:31;;;;;;;9.52;3.85;;;4.40;99.90;;;;;;5021902;28;20024;-75
2021/11/26 02:38:57;;;;;;;11.60;4.32;;;4.40;99.90;;;;;;5021122;28;20402;-75
2021/11/26 02:41:23;;;;;;;11.32;3.92;;;4.40;99.90;;;;;;5026633;28;20030;-75
2021/11/26 02:43:49;;;;;;;14.00;5.15;;;4.40;99.90;;;;;;5022090;28;20033;-74
2021/11/26 02:46:15;;;;;;;11.63;5.03;;;4.40;99.90;;;;;;5026129;28;20109;-74
2021/11/26 02:48:41;;;;;;;13.45;6.13;;;4.40;99.90;;;;;;5021128;28;20113;-74
2021/11/26 02:51:07;;;;;;;16.95;5.47;;;4.40;99.90;;;;;;5022942;28;20022;-74
2021/11/26 02:53:33;;;;;;;11.70;5.43;;;4.30;99.90;;;;;;5024494;28;20041;-74
2021/11/26 02:55:59;;;;;;;16.02;6.10;;;4.40;99.90;;;;;;5024880;28;20434;-74
2021/11/26 02:58:24;;;;;;;14.45;6.45;;;4.40;99.90;;;;;;5019614;28;20508;-74
2021/11/26 03:00:55;;;;;;;15.65;6.68;;;4.30;99.90;;;;;;5022231;28;20025;-75
2021/11/26 03:03:21;;;;;;;17.75;7.28;;;4.30;99.90;;;;;;5026985;28;20045;-75
2021/11/26 03:05:47;;;;;;;17.90;6.80;;;4.30;99.90;;;;;;5022212;28;20032;-74
2021/11/26 03:08:13;;;;;;;16.95;6.85;;;4.30;99.90;;;;;;5024665;28;20022;-75
2021/11/26 03:10:40;;;;;;;15.77;7.28;;;4.30;99.90;;;;;;5022534;28;20109;-74
2021/11/26 03:13:08;;;;;;;18.52;7.75;;;4.30;99.90;;;;;;5022520;28;20407;-75
2021/11/26 03:15:39;;;;;;;18.58;7.10;;;4.30;99.90;;;;;;5023023;28;20029;-74
2021/11/26 03:18:06;;;;;;;17.23;6.80;;;4.30;99.90;;;;;;5019070;28;20029;-74
2021/11/26 03:20:32;;;;;;;16.10;7.50;;;4.30;99.90;;;;;;5024006;28;20053;-74
2021/11/26 03:22:58;;;;;;;16.80;7.75;;;4.30;99.90;;;;;;5019476;28;20014;-74
2021/11/26 03:25:24;;;;;;;16.38;6.88;;;4.30;99.90;;;;;;5018328;28;20080;-75
2021/11/26 03:27:50;;;;;;;12.20;6.90;;;4.30;99.90;;;;;;5018626;28;20022;-74
2021/11/26 03:30:19;;;;;;;14.98;7.32;;;4.30;99.90;;;;;;5020258;28;20030;-74
2021/11/26 03:32:45;;;;;;;14.05;7.47;;;4.30;99.90;;;;;;5022928;28;20022;-74
2021/11/26 03:35:13;;;;;;;15.88;7.05;;;4.30;99.90;;;;;;5022868;28;20041;-74
2021/11/26 03:37:39;;;;;;;14.77;6.85;;;4.40;99.90;;;;;;5020935;28;20069;-74
2021/11/26 03:40:07;;;;;;;11.45;6.82;;;4.30;99.90;;;;;;5001377;28;20037;-74
2021/11/26 03:42:34;;;;;;;12.02;6.38;;;4.40;99.90;;;;;;5020427;28;20076;-74
2021/11/26 03:44:59;;;;;;;13.75;6.95;;;4.40;99.90;;;;;;5025925;28;20025;-75
2021/11/26 03:47:25;;;;;;;14.30;6.82;;;4.40;99.90;;;;;;5017676;28;20032;-74
2021/11/26 03:49:52;;;;;;;14.45;6.85;;;4.40;99.90;;;;;;5019631;28;20033;-75
2021/11/26 03:52:18;;;;;;;13.70;7.15;;;4.40;99.90;;;;;;5016596;28;20026;-74
2021/11/26 03:54:44;;;;;;;14.50;7.50;;;4.40;99.90;;;;;;5021923;28;20101;-75
2021/11/26 03:57:10;;;;;;;9.02;6.03;;;4.40;99.90;;;;;;5015510;28;20057;-74
2021/11/26 03:59:37;;;;;;;10.27;6.03;;;4.50;99.90;;;;;;5021703;28;20041;-75
2021/11/26 04:02:04;;;;;;;15.30;6.53;;;4.50;99.90;;;;;;5014768;28;20022;-73
2021/11/26 04:04:30;;;;;;;17.05;7.60;;;4.50;99.90;;;;;;5016530;28;20022;-72
2021/11/26 04:06:57;;;;;;;13.13;7.40;;;4.50;99.90;;;;;;5014996;28;20033;-75
2021/11/26 04:09:23;;;;;;;16.27;7.28;;;4.50;99.90;;;;;;5014766;28;20018;-72
2021/11/26 04:11:49;;;;;;;13.73;7.47;;;4.40;99.90;;;;;;5016615;28;20052;-72
2021/11/26 04:14:15;;;;;;;14.77;7.90;;;4.40;99.90;;;;;;5016267;28;20025;-73
2021/11/26 04:16:41;;;;;;;17.52;8.77;;;4.30;99.90;;;;;;5018166;28;20419;-73
2021/11/26 04:19:07;;;;;;;18.25;8.40;;;4.30;99.90;;;;;;5024772;28;20133;-73
2021/11/26 04:21:34;;;;;;;15.13;8.07;;;4.30;99.90;;;;;;5017014;28;20037;-73
2021/11/26 04:24:02;;;;;;;16.42;9.02;;;4.30;99.90;;;;;;5016018;28;20018;-73
2021/11/26 04:26:28;;;;;;;17.40;8.88;;;4.30;99.90;;;;;;5016977;28;20041;-73
2021/11/26 04:28:54;;;;;;;15.65;8.55;;;4.20;99.90;;;;;;5013630;28;20104;-73
2021/11/26 04:31:20;;;;;;;19.77;9.95;;;4.30;99.90;;;;;;5028634;28;20100;-73
2021/11/26 04:33:47;;;;;;;17.75;9.45;;;4.30;99.90;;;;;;5024784;28;20052;-73
2021/11/26 04:36:14;;;;;;;16.25;10.02;;;4.40;99.90;;;;;;5026921;28;20022;-73
2021/11/26 04:38:40;;;;;;;18.13;10.13;;;4.30;99.90;;;;;;5017400;28;20030;-73
2021/11/26 04:41:07;;;;;;;16.92;10.45;;;4.30;99.90;;;;;;5017139;28;20026;-72
2021/11/26 04:43:32;;;;;;;19.50;10.93;;;4.30;99.90;;;;;;5019684;28;20029;-72
2021/11/26 04:45:58;;;;;;;22.35;12.55;;;4.30;99.90;;;;;;5014050;28;20109;-73
2021/11/26 04:48:24;;;;;;;24.67;13.82;;;4.30;99.90;;;;;;5023459;28;20025;-72
2021/11/26 04:50:51;;;;;;;20.65;12.65;;;4.20;99.90;;;;;;5015202;28;20886;-73
2021/11/26 04:53:17;;;;;;;23.60;13.18;;;4.20;99.90;;;;;;5001270;28;20080;-73
2021/11/26 04:55:43;;;;;;;21.02;12.57;;;4.20;99.90;;;;;;5015525;28;20033;-73
2021/11/26 04:58:09;;;;;;;25.17;13.32;;;4.20;99.90;;;;;;5019194;28;20057;-73
2021/11/26 05:00:35;;;;;;;22.65;13.20;;;4.20;99.90;;;;;;5018584;28;20431;-73
2021/11/26 05:03:01;;;;;;;25.73;14.13;;;4.20;99.90;;;;;;5021449;28;20364;-73
2021/11/26 05:05:27;;;;;;;26.02;15.00;;;4.20;99.90;;;;;;5020141;28;20026;-73
2021/11/26 05:07:53;;;;;;;30.30;14.93;;;4.20;99.90;;;;;;5011585;28;20029;-73
2021/11/26 05:10:20;;;;;;;33.25;17.05;;;4.10;99.90;;;;;;5023807;28;20498;-73
2021/11/26 05:12:57;;;;;;;31.88;16.50;;;4.00;99.90;;;;;;5020648;28;20549;-73
2021/11/26 05:15:25;;;;;;;31.80;16.60;;;4.00;99.90;;;;;;5019890;28;20037;-73
2021/11/26 05:17:59;;;;;;;32.78;15.73;;;4.00;99.90;;;;;;5013159;28;20029;-73
2021/11/26 05:20:27;;;;;;;34.53;17.33;;;4.10;99.90;;;;;;5025107;28;20039;-73
2021/11/26 05:22:55;;;;;;;32.60;17.05;;;4.10;99.90;;;;;;5023701;28;20785;-75
2021/11/26 05:25:21;;;;;;;38.08;19.23;;;4.10;99.90;;;;;;5008998;28;20044;-75
2021/11/26 05:27:47;;;;;;;39.60;18.60;;;4.10;99.90;;;;;;5024488;28;20026;-74
2021/11/26 05:30:13;;;;;;;38.85;19.40;;;4.10;99.90;;;;;;5021766;28;20033;-76
2021/11/26 05:32:40;;;;;;;40.75;20.25;;;4.10;99.90;;;;;;5016891;28;20866;-75
2021/11/26 05:35:12;;;;;;;43.80;20.75;;;4.00;99.90;;;;;;4997297;28;20034;-75
2021/11/26 05:37:38;;;;;;;40.95;21.17;;;4.00;99.90;;;;;;5021765;28;20048;-75
2021/11/26 05:40:07;;;;;;;38.97;19.88;;;4.00;99.90;;;;;;5014769;28;20037;-74
2021/11/26 05:42:34;;;;;;;45.28;21.50;;;4.10;99.90;;;;;;5014522;28;20369;-75
2021/11/26 05:45:00;;;;;;;43.45;21.95;;;4.10;99.90;;;;;;5024979;28;20491;-73
2021/11/26 05:47:26;;;;;;;45.58;20.98;;;4.10;99.90;;;;;;5015361;28;20376;-74
2021/11/26 05:49:52;;;;;;;47.03;22.80;;;4.10;99.90;;;;;;5016005;28;20037;-75
2021/11/26 05:52:17;;;;;;;52.22;22.38;;;4.10;99.90;;;;;;5019604;28;20160;-76
2021/11/26 05:54:43;;;;;;;49.95;23.42;;;4.10;99.90;;;;;;5017622;28;20037;-75
2021/11/26 05:57:09;;;;;;;43.97;20.75;;;4.10;99.90;;;;;;5019094;28;20022;-75
2021/11/26 05:59:35;;;;;;;44.97;20.25;;;4.10;99.90;;;;;;5015077;28;20041;-75
2021/11/26 06:02:01;;;;;;;45.05;20.70;;;4.20;99.90;;;;;;5016583;28;20097;-74
2021/11/26 06:04:27;;;;;;;42.85;19.50;;;4.20;99.90;;;;;;5016498;28;20476;-75
2021/11/26 06:06:53;;;;;;;43.05;19.70;;;4.20;99.90;;;;;;5016888;28;20041;-73
2021/11/26 06:09:18;;;;;;;46.40;20.48;;;4.10;99.90;;;;;;5019767;28;20519;-76
2021/11/26 06:11:44;;;;;;;48.20;20.23;;;4.10;99.90;;;;;;5017294;28;20041;-76
2021/11/26 06:14:10;;;;;;;39.28;18.75;;;4.10;99.90;;;;;;5022657;28;20076;-77
2021/11/26 06:16:36;;;;;;;43.55;19.92;;;4.10;99.90;;;;;;5016510;28;20042;-76
2021/11/26 06:19:02;;;;;;;37.30;18.17;;;4.10;99.90;;;;;;5015747;28;20026;-74
2021/11/26 06:21:28;;;;;;;40.55;18.67;;;4.10;99.90;;;;;;5001793;28;20029;-75
2021/11/26 06:23:53;;;;;;;42.35;18.50;;;4.20;99.90;;;;;;5021255;28;20029;-76
2021/11/26 06:26:19;;;;;;;43.47;18.95;;;4.20;99.90;;;;;;5018685;28;20448;-74
2021/11/26 06:28:45;;;;;;;44.00;18.98;;;4.20;99.90;;;;;;5017049;28;20457;-75
2021/11/26 06:31:11;;;;;;;44.63;20.75;;;4.20;99.90;;;;;;5020193;28;20799;-75
2021/11/26 06:33:37;;;;;;;44.35;18.98;;;4.20;99.90;;;;;;5015131;28;20113;-74
2021/11/26 06:36:03;;;;;;;47.78;20.05;;;4.20;99.90;;;;;;5018610;28;21405;-75
2021/11/26 06:38:29;;;;;;;42.22;19.08;;;4.20;99.90;;;;;;5016309;28;20021;-75
2021/11/26 06:40:54;;;;;;;48.45;20.80;;;4.20;99.90;;;;;;5014535;28;20816;-75
2021/11/26 06:43:20;;;;;;;51.67;21.23;;;4.20;99.90;;;;;;5016623;28;20096;-74
2021/11/26 06:45:46;;;;;;;49.45;21.02;;;4.20;99.90;;;;;;5019555;28;20036;-73
2021/11/26 06:48:12;;;;;;;47.80;20.88;;;4.20;99.90;;;;;;5003425;28;20018;-73
2021/11/26 06:50:38;;;;;;;53.25;21.98;;;4.20;99.90;;;;;;5021505;28;20036;-75
2021/11/26 06:53:05;;;;;;;49.20;20.75;;;4.20;99.90;;;;;;5023607;28;20037;-75
2021/11/26 06:55:32;;;;;;;52.90;20.35;;;4.30;99.90;;;;;;5019440;28;20052;-75
2021/11/26 06:57:58;;;;;;;46.47;19.50;;;4.30;99.90;;;;;;5023638;28;20025;-72
2021/11/26 07:00:25;;;;;;;44.38;18.23;;;4.30;99.90;;;;;;5021635;28;20040;-72
2021/11/26 07:02:51;;;;;;;42.22;19.25;;;4.30;99.90;;;;;;5019878;28;20018;-73
2021/11/26 07:05:17;;;;;;;45.83;20.08;;;4.30;99.90;;;;;;5022936;28;20117;-72
2021/11/26 07:07:43;;;;;;;48.47;20.02;;;4.40;99.90;;;;;;5027731;28;20110;-73
2021/11/26 07:10:11;;;;;;;43.63;17.77;;;4.40;99.90;;;;;;5004729;28;20455;-72
2021/11/26 07:12:37;;;;;;;42.83;18.52;;;4.30;99.90;;;;;;5021140;28;20406;-72
2021/11/26 07:15:08;;;;;;;38.55;17.83;;;4.30;99.90;;;;;;5020496;28;20475;-73
2021/11/26 07:17:34;;;;;;;43.22;18.42;;;4.40;99.90;;;;;;5029675;28;20064;-74
2021/11/26 07:20:02;;;;;;;39.83;18.50;;;4.40;99.90;;;;;;5025793;28;20021;-73
2021/11/26 07:22:27;;;;;;;43.92;18.83;;;4.40;99.90;;;;;;5023954;28;20100;-74
2021/11/26 07:24:53;;;;;;;47.25;19.55;;;4.40;99.90;;;;;;5023644;28;20054;-73
2021/11/26 07:27:19;;;;;;;47.45;18.88;;;4.40;99.90;;;;;;5018704;28;20024;-72
2021/11/26 07:29:45;;;;;;;51.33;18.65;;;4.30;99.90;;;;;;5022402;28;20025;-73
2021/11/26 07:32:12;;;;;;;41.25;17.98;;;4.40;99.90;;;;;;5021534;28;20100;-72
2021/11/26 07:34:40;;;;;;;41.65;18.55;;;4.30;99.90;;;;;;5021392;28;20025;-73
2021/11/26 07:37:08;;;;;;;39.03;17.33;;;4.30;99.90;;;;;;5022811;28;20029;-73
2021/11/26 07:39:36;;;;;;;37.42;16.73;;;4.40;99.90;;;;;;5020119;28;20033;-73
2021/11/26 07:42:07;;;;;;;34.38;16.65;;;4.40;99.90;;;;;;5015740;28;20651;-72
2021/11/26 07:44:35;;;;;;;41.55;17.00;;;4.40;99.90;;;;;;5022316;28;20377;-73
2021/11/26 07:47:04;;;;;;;39.78;17.58;;;4.40;99.90;;;;;;5017940;28;20041;-73
2021/11/26 07:49:30;;;;;;;39.08;19.27;;;4.50;99.90;;;;;;5020948;28;20029;-75
2021/11/26 07:51:57;;;;;;;37.33;18.02;;;4.50;99.90;;;;;;5022026;28;20041;-74
2021/11/26 07:54:24;;;;;;;47.00;19.38;;;4.50;99.90;;;;;;5018593;28;20025;-74
2021/11/26 07:56:49;;;;;;;39.95;17.55;;;4.50;99.90;;;;;;5019202;28;20048;-74
2021/11/26 07:59:15;;;;;;;33.55;15.10;;;4.50;99.90;;;;;;5020135;28;20022;-75
2021/11/26 08:01:41;;;;;;;38.80;15.88;;;4.50;99.90;;;;;;5015794;28;20033;-77
2021/11/26 08:04:07;;;;;;;37.67;14.77;;;4.50;99.90;;;;;;5022242;28;20021;-75
2021/11/26 08:06:32;;;;;;;37.92;16.85;;;4.60;99.90;;;;;;5022992;28;20042;-73
2021/11/26 08:08:58;;;;;;;32.65;15.48;;;4.60;99.90;;;;;;5017831;28;20025;-74
2021/11/26 08:11:24;;;;;;;32.85;15.32;;;4.60;99.90;;;;;;5017201;28;20431;-74
2021/11/26 08:13:50;;;;;;;37.03;17.27;;;4.60;99.90;;;;;;5017295;28;20032;-73
2021/11/26 08:16:16;;;;;;;32.55;15.90;;;4.60;99.90;;;;;;5018914;28;20499;-72
2021/11/26 08:18:42;;;;;;;35.40;15.10;;;4.60;99.90;;;;;;5000097;28;20472;-74
2021/11/26 08:21:08;;;;;;;34.05;14.50;;;4.60;99.90;;;;;;5018612;28;20034;-72
2021/11/26 08:23:34;;;;;;;36.17;16.15;;;4.70;99.90;;;;;;5018658;28;20033;-71
2021/11/26 08:26:01;;;;;;;35.58;14.82;;;4.70;99.90;;;;;;5019048;28;20060;-72
2021/11/26 08:28:28;;;;;;;36.13;16.13;;;4.70;99.90;;;;;;5019314;28;20022;-72
2021/11/26 08:30:57;;;;;;;32.60;15.05;;;4.70;99.90;;;;;;5015078;28;20040;-72
2021/11/26 08:33:25;;;;;;;31.70;14.82;;;4.70;99.90;;;;;;5018058;28;20392;-72
2021/11/26 08:35:51;;;;;;;32.70;15.23;;;4.70;99.90;;;;;;5016079;28;20040;-73
2021/11/26 08:38:18;;;;;;;34.25;14.82;;;4.70;99.90;;;;;;5020483;28;20467;-71
2021/11/26 08:40:43;;;;;;;30.98;15.27;;;4.70;99.90;;;;;;5018938;28;20030;-72
2021/11/26 08:43:10;;;;;;;31.85;16.27;;;4.70;99.90;;;;;;5016571;28;20602;-71
2021/11/26 08:45:37;;;;;;;31.83;15.25;;;4.70;99.90;;;;;;5017776;28;20055;-72
2021/11/26 08:48:03;;;;;;;30.05;15.10;;;4.70;99.90;;;;;;5018281;28;20025;-72
2021/11/26 08:50:29;;;;;;;31.55;14.70;;;4.70;99.90;;;;;;4998592;28;20069;-72
2021/11/26 08:52:55;;;;;;;32.80;12.93;;;4.70;99.90;;;;;;5021395;28;20469;-73
2021/11/26 08:55:21;;;;;;;32.33;14.30;;;4.70;99.90;;;;;;5017570;28;20096;-72
2021/11/26 08:57:53;;;;;;;28.90;13.48;;;4.70;99.90;;;;;;5020099;28;20491;-73
2021/11/26 09:00:24;;;;;;;31.85;13.70;;;4.70;99.90;;;;;;5019128;28;20468;-72
2021/11/26 09:02:50;;;;;;;31.95;14.25;;;4.70;99.90;;;;;;4999653;28;20026;-74
2021/11/26 09:05:16;;;;;;;27.42;12.80;;;4.70;99.90;;;;;;5019015;28;20422;-73
2021/11/26 09:07:44;;;;;;;28.33;13.88;;;4.70;99.90;;;;;;5018584;28;20496;-72
2021/11/26 09:10:10;;;;;;;29.13;12.55;;;4.70;99.90;;;;;;5018474;28;20085;-73
2021/11/26 09:12:36;;;;;;;26.98;13.35;;;4.70;99.90;;;;;;5018522;28;20060;-73
2021/11/26 09:15:03;;;;;;;27.50;13.20;;;4.70;99.90;;;;;;5018325;28;20504;-73
2021/11/26 09:17:29;;;;;;;27.80;11.95;;;4.70;99.90;;;;;;5015774;28;20564;-72
2021/11/26 09:19:54;;;;;;;24.88;12.77;;;4.70;99.90;;;;;;5017764;28;20034;-72
2021/11/26 09:22:20;;;;;;;27.80;11.68;;;4.80;99.90;;;;;;5017726;28;20507;-73
2021/11/26 09:24:46;;;;;;;28.80;13.25;;;4.80;99.90;;;;;;5017837;28;20033;-73
2021/11/26 09:27:12;;;;;;;22.67;10.85;;;4.80;99.90;;;;;;5017741;28;20079;-72
2021/11/26 09:29:42;;;;;;;26.80;12.82;;;4.90;99.90;;;;;;5019831;28;20081;-72
2021/11/26 09:32:08;;;;;;;28.38;12.52;;;4.90;99.90;;;;;;5016576;28;20025;-72
2021/11/26 09:34:34;;;;;;;28.42;12.95;;;4.90;99.90;;;;;;5017443;28;20080;-73
2021/11/26 09:36:59;;;;;;;32.15;14.10;;;4.90;99.90;;;;;;5001529;28;20034;-72
2021/11/26 09:39:25;;;;;;;27.92;13.23;;;4.90;99.90;;;;;;5019292;28;20058;-71
2021/11/26 09:41:53;;;;;;;30.20;13.95;;;5.00;99.90;;;;;;5016383;28;20435;-73
2021/11/26 09:44:19;;;;;;;26.33;12.38;;;4.90;99.90;;;;;;5019010;28;20025;-73
2021/11/26 09:46:47;;;;;;;27.35;13.40;;;4.90;99.90;;;;;;5017810;28;20100;-72
2021/11/26 09:49:13;;;;;;;25.80;13.38;;;5.00;99.90;;;;;;5016566;28;20021;-72
2021/11/26 09:51:39;;;;;;;21.50;12.32;;;5.00;99.90;;;;;;4998818;28;20820;-70
2021/11/26 09:54:05;;;;;;;27.98;13.75;;;5.10;99.90;;;;;;5017550;28;20053;-72
2021/11/26 09:56:33;;;;;;;25.13;11.23;;;5.10;99.90;;;;;;5016414;28;20094;-72
2021/11/26 09:58:59;;;;;;;23.02;11.30;;;5.10;99.90;;;;;;5019985;28;20045;-72
2021/11/26 10:01:26;;;;;;;26.02;12.02;;;5.10;99.90;;;;;;5016373;28;20026;-73
2021/11/26 10:03:53;;;;;;;25.08;11.27;;;5.20;99.90;;;;;;5017214;28;20026;-73
2021/11/26 10:06:22;;;;;;;23.27;10.35;;;5.20;99.90;;;;;;5018188;28;20083;-71
2021/11/26 10:09:03;;;;;;;20.30;10.13;;;5.20;99.90;;;;;;5016851;28;20025;-72
2021/11/26 10:11:32;;;;;;;19.92;10.02;;;5.30;99.90;;;;;;5016774;28;20517;-72
2021/11/26 10:13:58;;;;;;;21.77;10.57;;;5.40;99.90;;;;;;5017696;28;20724;-72
2021/11/26 10:16:24;;;;;;;20.38;10.07;;;5.40;99.90;;;;;;5017989;28;20079;-73
2021/11/26 10:18:52;;;;;;;18.60;9.27;;;5.50;99.90;;;;;;5017378;28;20234;-73
2021/11/26 10:21:19;;;;;;;19.75;9.95;;;5.50;99.90;;;;;;5016110;28;20050;-73
2021/11/26 10:23:48;;;;;;;16.33;8.70;;;5.50;99.90;;;;;;5015573;28;20109;-71
2021/11/26 10:26:14;;;;;;;18.80;9.38;;;5.50;99.90;;;;;;5018271;28;20092;-73
2021/11/26 10:28:49;;;;;;;17.60;8.50;;;5.50;99.90;;;;;;5018032;28;20104;-71
2021/11/26 10:31:27;;;;;;;16.40;8.20;;;5.50;99.90;;;;;;5019011;28;20086;-71
2021/11/26 10:33:56;;;;;;;15.43;8.18;;;5.60;99.90;;;;;;5017818;28;20034;-72
2021/11/26 10:36:24;;;;;;;15.00;8.32;;;5.50;99.90;;;;;;5017351;28;20045;-74
2021/11/26 10:38:50;;;;;;;18.67;9.07;;;5.60;99.90;;;;;;5020131;28;21869;-72
2021/11/26 10:41:24;;;;;;;18.75;9.18;;;5.60;99.90;;;;;;5019513;28;20095;-72
2021/11/26 10:43:58;;;;;;;22.10;8.85;;;5.60;99.90;;;;;;5018939;28;20017;-72
2021/11/26 10:59:59;;;;;;;22.67;10.05;;;5.50;99.90;;;;;;5017400;28;20487;-72
2021/11/26 11:02:36;;;;;;;21.88;9.07;;;5.60;99.90;;;;;;5021446;28;20018;-73
2021/11/26 11:05:04;;;;;;;22.35;10.65;;;5.60;99.90;;;;;;5018854;28;20073;-74
2021/11/26 11:07:57;;;;;;;18.25;9.73;;;5.60;99.90;;;;;;5020745;28;20268;-73
2021/11/26 11:10:25;;;;;;;21.30;9.98;;;5.60;99.90;;;;;;5018675;28;20064;-73
2021/11/26 11:12:51;;;;;;;23.70;9.65;;;5.60;99.90;;;;;;5024643;28;20549;-72
2021/11/26 11:15:18;;;;;;;24.63;10.50;;;5.60;99.90;;;;;;5023961;28;20068;-72
2021/11/26 11:17:46;;;;;;;22.33;9.10;;;5.60;99.90;;;;;;5018038;28;20041;-74
2021/11/26 11:20:16;;;;;;;26.33;9.70;;;5.60;99.90;;;;;;5017588;28;20109;-73
2021/11/26 11:22:43;;;;;;;18.88;9.27;;;5.60;99.90;;;;;;5021403;28;20018;-73
2021/11/26 11:25:12;;;;;;;23.80;10.77;;;5.60;99.90;;;;;;5022442;28;20034;-73
2021/11/26 11:27:38;;;;;;;20.25;9.00;;;5.60;99.90;;;;;;5015518;28;20069;-73
2021/11/26 11:30:07;;;;;;;23.27;10.23;;;5.70;99.90;;;;;;5021220;28;20057;-73
2021/11/26 11:32:34;;;;;;;22.52;10.25;;;5.70;99.90;;;;;;5021790;28;20091;-76
2021/11/26 11:35:01;;;;;;;24.83;10.93;;;5.80;99.90;;;;;;5022580;28;20033;-74
2021/11/26 11:37:28;;;;;;;24.33;9.13;;;5.80;99.90;;;;;;5004376;28;20053;-74
2021/11/26 11:40:00;;;;;;;21.38;9.80;;;5.80;99.90;;;;;;5018379;28;20079;-74
2021/11/26 11:42:33;;;;;;;20.02;10.00;;;5.70;99.90;;;;;;5021278;28;20030;-75
2021/11/26 11:45:08;;;;;;;22.77;10.25;;;5.80;99.90;;;;;;5020858;28;20053;-75
2021/11/26 11:47:35;;;;;;;25.48;10.20;;;5.70;99.90;;;;;;5020885;28;20030;-75
2021/11/26 11:50:11;;;;;;;22.02;9.95;;;5.70;99.90;;;;;;5020544;28;20038;-73
2021/11/26 11:52:45;;;;;;;21.98;9.82;;;5.70;99.90;;;;;;5020356;28;20034;-74
2021/11/26 11:55:18;;;;;;;21.63;10.23;;;5.70;99.90;;;;;;5021463;28;20113;-74
2021/11/26 11:57:44;;;;;;;29.25;11.48;;;5.70;99.90;;;;;;5017821;28;20025;-76
2021/11/26 12:00:17;;;;;;;24.63;10.77;;;5.70;99.90;;;;;;5018042;28;20036;-75
2021/11/26 12:02:44;;;;;;;30.75;11.68;;;5.70;99.90;;;;;;5020383;28;20417;-76
2021/11/26 12:05:26;;;;;;;27.23;11.45;;;5.70;99.90;;;;;;5020847;28;20041;-75
2021/11/26 12:08:11;;;;;;;35.22;12.50;;;5.70;99.90;;;;;;5016553;28;20109;-76
2021/11/26 12:10:58;;;;;;;25.45;11.20;;;5.70;99.90;;;;;;5019088;28;20034;-75
2021/11/26 12:13:35;;;;;;;27.83;11.75;;;5.70;99.90;;;;;;5018978;28;20037;-75
2021/11/26 12:16:11;;;;;;;28.30;11.95;;;5.70;99.90;;;;;;5017257;28;20042;-76
2021/11/26 12:18:52;;;;;;;27.35;11.73;;;5.80;99.90;;;;;;5019951;28;20037;-75
2021/11/26 12:21:32;;;;;;;24.77;11.80;;;5.80;99.90;;;;;;5001798;28;20578;-78
2021/11/26 12:24:09;;;;;;;29.63;12.98;;;5.80;99.90;;;;;;5020161;28;20034;-75
2021/11/26 12:27:01;;;;;;;27.02;11.77;;;5.80;99.90;;;;;;5024583;28;20025;-76
2021/11/26 12:29:40;;;;;;;27.67;12.50;;;5.80;99.90;;;;;;5020626;28;20047;-75
2021/11/26 12:32:09;;;;;;;35.00;11.98;;;5.80;99.90;;;;;;5015576;28;20034;-77
2021/11/26 12:34:39;;;;;;;26.33;12.32;;;5.80;99.90;;;;;;5015057;28;20036;-75
2021/11/26 12:37:17;;;;;;;26.45;12.27;;;5.80;99.90;;;;;;5017860;28;20112;-74
2021/11/26 12:39:43;;;;;;;22.27;11.57;;;5.70;99.90;;;;;;5001095;28;20062;-75
2021/11/26 12:42:09;;;;;;;30.85;11.88;;;5.80;99.90;;;;;;5017803;28;20080;-74
2021/11/26 12:44:35;;;;;;;26.90;12.25;;;5.80;99.90;;;;;;5017170;28;20033;-75
2021/11/26 12:47:09;;;;;;;25.40;12.18;;;5.80;99.90;;;;;;5014133;28;20018;-76
2021/11/26 12:52:25;;;;;;;29.75;12.30;;;5.80;99.90;;;;;;5021230;28;20029;-76
2021/11/26 12:54:54;;;;;;;26.08;11.02;;;5.90;99.90;;;;;;5011873;28;20033;-75
2021/11/26 12:57:26;;;;;;;24.38;11.20;;;5.90;99.90;;;;;;5013917;28;20057;-75
2021/11/26 12:59:53;;;;;;;28.35;10.60;;;5.90;99.90;;;;;;5012038;28;20545;-75
2021/11/26 13:02:29;;;;;;;23.27;11.20;;;5.90;99.90;;;;;;5014332;28;20037;-76